createdAt,value
2022-10-01T00:01:23.492Z,1.80
2022-10-01T00:03:51.365Z,2.00
2022-10-01T00:06:22.153Z,1.97
2022-10-01T00:08:51.496Z,1.50
2022-10-01T00:11:21.146Z,2.50
2022-10-01T00:13:49.326Z,2.23
2022-10-01T00:16:19.254Z,1.97
2022-10-01T00:18:49.715Z,2.10
2022-10-01T00:21:21.607Z,2.03
2022-10-01T00:23:54.256Z,1.80
2022-10-01T00:26:25.464Z,1.87
2022-10-01T00:28:56.373Z,2.03
2022-10-01T00:31:25.497Z,2.30
2022-10-01T00:33:55.424Z,2.00
2022-10-01T00:36:23.520Z,1.93
2022-10-01T00:38:51.749Z,1.37
2022-10-01T00:41:20.374Z,2.20
2022-10-01T00:43:51.657Z,1.80
2022-10-01T00:46:23.246Z,2.20
2022-10-01T00:48:58.214Z,1.60
2022-10-01T00:51:30.724Z,2.00
2022-10-01T00:54:06.938Z,1.60
2022-10-01T00:56:35.106Z,2.00
2022-10-01T00:59:03.179Z,1.50
2022-10-01T01:01:31.364Z,2.03
2022-10-01T01:04:01.051Z,1.90
2022-10-01T01:06:29.108Z,1.87
2022-10-01T01:08:57.435Z,2.20
2022-10-01T01:11:34.337Z,2.00
2022-10-01T01:14:11.225Z,1.83
2022-10-01T01:16:45.696Z,1.90
2022-10-01T01:19:29.448Z,1.80
2022-10-01T01:22:00.787Z,1.87
2022-10-01T01:24:49.845Z,2.13
2022-10-01T01:27:31.910Z,1.83
2022-10-01T01:30:05.059Z,1.53
2022-10-01T01:32:46.187Z,1.90
2022-10-01T01:35:20.573Z,2.03
2022-10-01T01:37:53.733Z,2.00
2022-10-01T01:40:22.929Z,1.97
2022-10-01T01:42:52.043Z,2.13
2022-10-01T01:45:24.649Z,1.90
2022-10-01T01:47:55.983Z,1.67
2022-10-01T01:50:25.109Z,1.93
2022-10-01T01:52:54.341Z,2.00
2022-10-01T01:55:24.435Z,2.10
2022-10-01T01:57:52.507Z,2.57
2022-10-01T02:00:22.394Z,1.90
2022-10-01T02:02:52.679Z,2.23
2022-10-01T02:05:24.497Z,1.93
2022-10-01T02:08:27.703Z,1.80
2022-10-01T02:11:08.479Z,2.00
2022-10-01T02:13:47.946Z,1.93
2022-10-01T02:16:24.211Z,2.20
2022-10-01T02:18:59.973Z,2.10
2022-10-01T02:21:34.126Z,1.90
2022-10-01T02:24:07.806Z,2.00
2022-10-01T02:26:38.964Z,2.27
2022-10-01T02:29:09.895Z,1.90
2022-10-01T02:31:39.573Z,2.03
2022-10-01T02:34:12.386Z,2.30
2022-10-01T02:36:42.406Z,2.07
2022-10-01T02:39:11.482Z,1.90
2022-10-01T02:41:39.693Z,2.30
2022-10-01T02:44:11.651Z,2.10
2022-10-01T02:46:45.272Z,2.73
2022-10-01T02:49:15.031Z,1.53
2022-10-01T02:51:51.151Z,2.20
2022-10-01T02:54:23.551Z,1.50
2022-10-01T02:57:18.132Z,2.47
2022-10-01T02:59:45.997Z,1.80
2022-10-01T03:02:15.526Z,2.20
2022-10-01T03:04:43.470Z,2.27
2022-10-01T03:07:11.346Z,2.00
2022-10-01T03:09:39.184Z,2.43
2022-10-01T03:12:07.520Z,2.00
2022-10-01T03:14:35.364Z,1.70
2022-10-01T03:17:03.195Z,1.70
2022-10-01T03:19:32.370Z,1.93
2022-10-01T03:22:00.270Z,2.20
2022-10-01T03:24:28.110Z,2.00
2022-10-01T03:26:56.715Z,2.00
2022-10-01T03:29:24.709Z,2.20
2022-10-01T03:31:53.437Z,2.10
2022-10-01T03:34:21.400Z,2.10
2022-10-01T03:36:52.083Z,2.03
2022-10-01T03:39:20.141Z,1.90
2022-10-01T03:41:48.016Z,2.20
2022-10-01T03:44:15.873Z,2.07
2022-10-01T03:46:43.773Z,2.00
2022-10-01T03:49:11.685Z,1.93
2022-10-01T03:51:40.925Z,2.53
2022-10-01T03:54:11.093Z,2.13
2022-10-01T03:56:40.791Z,2.10
2022-10-01T03:59:08.713Z,1.73
2022-10-01T04:01:37.138Z,2.17
2022-10-01T04:04:05.545Z,2.10
2022-10-01T04:06:33.825Z,2.20
2022-10-01T04:09:01.754Z,1.70
2022-10-01T04:11:31.304Z,1.53
2022-10-01T04:13:59.440Z,2.10
2022-10-01T04:16:27.372Z,1.90
2022-10-01T04:18:55.639Z,2.27
2022-10-01T04:21:23.456Z,2.17
2022-10-01T04:23:51.315Z,1.90
2022-10-01T04:26:19.721Z,2.60
2022-10-01T04:28:48.877Z,2.20
2022-10-01T04:31:25.588Z,1.60
2022-10-01T04:33:54.672Z,2.13
2022-10-01T04:36:23.640Z,2.00
2022-10-01T04:39:00.857Z,1.53
2022-10-01T04:41:30.383Z,1.90
2022-10-01T04:44:00.534Z,1.77
2022-10-01T04:46:29.349Z,1.73
2022-10-01T04:48:57.246Z,2.20
2022-10-01T04:51:25.195Z,2.00
2022-10-01T04:53:53.161Z,2.23
2022-10-01T04:56:20.961Z,2.10
2022-10-01T04:58:49.109Z,2.27
2022-10-01T05:01:18.413Z,2.27
2022-10-01T05:03:47.351Z,2.40
2022-10-01T05:06:15.291Z,2.37
2022-10-01T05:08:43.102Z,2.20
2022-10-01T05:11:10.945Z,1.93
2022-10-01T05:13:38.726Z,2.37
2022-10-01T05:16:06.774Z,1.73
2022-10-01T05:18:35.938Z,2.20
2022-10-01T05:21:06.514Z,1.93
2022-10-01T05:23:34.470Z,2.30
2022-10-01T05:26:04.170Z,1.77
2022-10-01T05:28:32.058Z,2.33
2022-10-01T05:31:00.947Z,1.60
2022-10-01T05:33:29.564Z,1.97
2022-10-01T05:35:58.842Z,2.30
2022-10-01T05:38:27.018Z,2.13
2022-10-01T05:40:54.810Z,2.10
2022-10-01T05:43:22.628Z,1.97
2022-10-01T05:45:51.147Z,2.00
2022-10-01T05:48:19.153Z,2.40
2022-10-01T05:50:46.985Z,2.07
2022-10-01T05:53:16.438Z,2.00
2022-10-01T05:55:44.365Z,1.90
2022-10-01T05:58:14.107Z,2.17
2022-10-01T06:00:43.079Z,2.23
2022-10-01T06:03:13.413Z,1.93
2022-10-01T06:05:41.492Z,2.50
2022-10-01T06:08:10.621Z,2.23
2022-10-01T06:10:40.219Z,2.23
2022-10-01T06:13:08.494Z,1.70
2022-10-01T06:15:38.318Z,2.00
2022-10-01T06:18:07.125Z,1.87
2022-10-01T06:20:35.527Z,2.43
2022-10-01T06:23:05.791Z,2.03
2022-10-01T06:25:35.044Z,2.10
2022-10-01T06:28:05.882Z,2.10
2022-10-01T06:30:36.219Z,1.90
2022-10-01T06:33:05.119Z,2.33
2022-10-01T06:35:33.753Z,1.80
2022-10-01T06:38:02.605Z,1.83
2022-10-01T06:40:31.084Z,2.00
2022-10-01T06:42:59.519Z,2.40
2022-10-01T06:45:30.058Z,2.20
2022-10-01T06:47:59.656Z,1.70
2022-10-01T06:50:27.467Z,1.90
2022-10-01T06:52:55.709Z,2.17
2022-10-01T06:55:26.118Z,2.10
2022-10-01T06:57:55.881Z,1.77
2022-10-01T07:00:24.118Z,1.70
2022-10-01T07:02:53.370Z,1.50
2022-10-01T07:05:21.253Z,1.70
2022-10-01T07:07:49.390Z,1.70
2022-10-01T07:10:19.855Z,1.97
2022-10-01T07:12:49.478Z,1.97
2022-10-01T07:15:19.390Z,1.80
2022-10-01T07:17:48.947Z,1.53
2022-10-01T07:20:19.280Z,1.90
2022-10-01T07:22:48.067Z,1.80
2022-10-01T07:25:16.310Z,1.60
2022-10-01T07:27:44.204Z,1.97
2022-10-01T07:30:12.691Z,1.73
2022-10-01T07:32:40.558Z,1.53
2022-10-01T07:35:09.014Z,1.70
2022-10-01T07:37:38.203Z,1.80
2022-10-01T07:40:07.749Z,1.93
2022-10-01T07:42:35.712Z,1.57
2022-10-01T07:45:06.566Z,1.50
2022-10-01T07:47:34.580Z,1.77
2022-10-01T07:50:02.393Z,1.27
2022-10-01T07:52:30.221Z,1.93
2022-10-01T07:54:59.404Z,1.50
2022-10-01T07:57:27.227Z,1.43
2022-10-01T07:59:56.058Z,1.90
2022-10-01T08:02:24.147Z,1.50
2022-10-01T08:05:09.674Z,1.70
2022-10-01T08:07:37.522Z,1.50
2022-10-01T08:10:07.558Z,1.90
2022-10-01T08:12:35.689Z,1.83
2022-10-01T08:15:03.667Z,1.50
2022-10-01T08:17:31.547Z,1.73
2022-10-01T08:19:59.321Z,1.60
2022-10-01T08:22:27.691Z,1.67
2022-10-01T08:24:55.535Z,1.40
2022-10-01T08:27:26.250Z,1.33
2022-10-01T08:29:54.420Z,1.37
2022-10-01T08:32:23.329Z,1.37
2022-10-01T08:34:56.480Z,1.50
2022-10-01T08:37:28.634Z,1.67
2022-10-01T08:39:57.164Z,1.50
2022-10-01T08:42:52.293Z,2.20
2022-10-01T08:45:26.495Z,1.47
2022-10-01T08:48:00.969Z,1.63
2022-10-01T08:50:41.822Z,1.50
2022-10-01T08:53:17.001Z,1.50
2022-10-01T08:55:47.299Z,1.67
2022-10-01T08:58:22.751Z,1.60
2022-10-01T09:00:52.644Z,1.50
2022-10-01T09:03:20.701Z,1.43
2022-10-01T09:05:57.906Z,1.43
2022-10-01T09:08:44.609Z,1.27
2022-10-01T09:11:36.956Z,1.60
2022-10-01T09:14:23.325Z,1.40
2022-10-01T09:17:00.707Z,1.53
2022-10-01T09:19:46.075Z,1.70
2022-10-01T09:22:25.958Z,1.43
2022-10-01T09:25:01.711Z,1.50
2022-10-01T09:27:29.715Z,1.40
2022-10-01T09:30:02.091Z,1.07
2022-10-01T09:32:36.739Z,1.77
2022-10-01T09:35:16.616Z,1.50
2022-10-01T09:37:49.700Z,1.47
2022-10-01T09:40:25.661Z,1.33
2022-10-01T09:42:53.648Z,1.57
2022-10-01T09:45:24.587Z,1.27
2022-10-01T09:47:55.469Z,1.50
2022-10-01T09:50:31.296Z,1.40
2022-10-01T09:53:01.422Z,1.13
2022-10-01T09:55:35.086Z,1.30
2022-10-01T09:58:08.207Z,1.07
2022-10-01T10:00:38.711Z,1.50
2022-10-01T10:03:06.760Z,1.87
2022-10-01T10:05:43.239Z,1.20
2022-10-01T10:08:15.400Z,1.30
2022-10-01T10:10:51.628Z,1.27
2022-10-01T10:13:24.282Z,1.47
2022-10-01T10:15:57.487Z,1.20
2022-10-01T10:18:29.853Z,1.10
2022-10-01T10:20:59.215Z,1.40
2022-10-01T10:23:29.195Z,1.10
2022-10-01T10:26:00.689Z,1.23
2022-10-01T10:28:30.434Z,1.27
2022-10-01T10:30:59.862Z,1.33
2022-10-01T10:33:27.942Z,1.30
2022-10-01T10:36:01.282Z,1.33
2022-10-01T10:38:33.313Z,1.60
2022-10-01T10:41:01.776Z,1.50
2022-10-01T10:43:34.121Z,1.30
2022-10-01T10:46:03.875Z,1.27
2022-10-01T10:48:36.663Z,1.50
2022-10-01T10:51:07.115Z,1.13
2022-10-01T10:53:43.889Z,1.20
2022-10-01T10:56:20.018Z,1.30
2022-10-01T10:58:48.984Z,1.43
2022-10-01T11:01:28.832Z,1.23
2022-10-01T11:03:59.770Z,1.50
2022-10-01T11:06:27.934Z,1.60
2022-10-01T11:09:08.191Z,1.93
2022-10-01T11:11:48.513Z,1.40
2022-10-01T11:14:35.256Z,1.40
2022-10-01T11:17:25.710Z,1.50
2022-10-01T11:20:10.723Z,1.73
2022-10-01T11:22:52.425Z,1.23
2022-10-01T11:25:34.492Z,1.50
2022-10-01T11:28:13.555Z,1.50
2022-10-01T11:30:54.120Z,1.47
2022-10-01T11:33:35.298Z,1.40
2022-10-01T11:36:07.362Z,1.87
2022-10-01T11:38:50.774Z,1.27
2022-10-01T11:41:26.725Z,1.40
2022-10-01T11:43:57.574Z,1.40
2022-10-01T11:46:34.697Z,1.70
2022-10-01T11:49:17.701Z,1.70
2022-10-01T11:51:50.585Z,1.70
2022-10-01T11:54:25.316Z,1.40
2022-10-01T11:57:15.136Z,1.37
2022-10-01T11:59:50.064Z,1.40
2022-10-01T12:02:25.205Z,1.70
2022-10-01T12:04:59.934Z,1.67
2022-10-01T12:07:32.962Z,1.67
2022-10-01T12:10:10.655Z,1.60
2022-10-01T12:12:43.740Z,1.63
2022-10-01T12:15:14.987Z,1.67
2022-10-01T12:17:46.095Z,1.10
2022-10-01T12:20:21.791Z,1.70
2022-10-01T12:22:50.771Z,2.47
2022-10-01T12:25:20.962Z,1.30
2022-10-01T12:27:58.407Z,1.53
2022-10-01T12:30:31.617Z,1.40
2022-10-01T12:33:11.543Z,1.30
2022-10-01T12:35:53.404Z,1.57
2022-10-01T12:38:36.275Z,1.50
2022-10-01T12:41:17.167Z,2.17
2022-10-01T12:44:17.814Z,1.40
2022-10-01T12:46:50.393Z,1.83
2022-10-01T12:49:34.027Z,1.53
2022-10-01T12:52:09.996Z,1.40
2022-10-01T12:54:55.837Z,1.80
2022-10-01T12:57:38.897Z,1.50
2022-10-01T13:00:13.373Z,2.00
2022-10-01T13:03:13.651Z,2.20
2022-10-01T13:05:49.146Z,1.87
2022-10-01T13:08:40.327Z,2.20
2022-10-01T13:11:20.604Z,2.10
2022-10-01T13:13:51.290Z,2.33
2022-10-01T13:16:28.697Z,2.40
2022-10-01T13:19:05.217Z,2.17
2022-10-01T13:21:58.273Z,2.90
2022-10-01T13:24:32.795Z,2.00
2022-10-01T13:27:06.612Z,1.70
2022-10-01T13:29:48.080Z,2.40
2022-10-01T13:32:28.562Z,2.43
2022-10-01T13:34:57.621Z,2.37
2022-10-01T13:37:37.670Z,2.13
2022-10-01T13:40:24.557Z,1.80
2022-10-01T13:42:54.757Z,1.63
2022-10-01T13:45:27.750Z,2.07
2022-10-01T13:48:15.346Z,1.90
2022-10-01T13:50:56.277Z,1.80
2022-10-01T13:53:27.309Z,2.20
2022-10-01T13:55:56.955Z,2.07
2022-10-01T13:58:33.396Z,1.77
2022-10-01T14:01:03.573Z,2.13
2022-10-01T14:03:43.835Z,1.80
2022-10-01T14:06:18.422Z,1.53
2022-10-01T14:08:51.873Z,1.77
2022-10-01T14:11:43.913Z,1.90
2022-10-01T14:14:32.314Z,1.83
2022-10-01T14:17:01.421Z,1.47
2022-10-01T14:19:29.497Z,1.73
2022-10-01T14:22:14.821Z,1.50
2022-10-01T14:25:04.921Z,1.77
2022-10-01T14:27:40.794Z,1.70
2022-10-01T14:30:13.812Z,1.83
2022-10-01T14:33:17.560Z,1.60
2022-10-01T14:35:54.942Z,1.87
2022-10-01T14:38:23.790Z,1.93
2022-10-01T14:40:52.796Z,2.03
2022-10-01T14:43:23.793Z,2.03
2022-10-01T14:45:55.002Z,1.30
2022-10-01T14:48:24.029Z,1.70
2022-10-01T14:50:54.494Z,1.63
2022-10-01T14:53:24.957Z,1.77
2022-10-01T14:55:57.397Z,1.30
2022-10-01T14:58:32.076Z,1.20
2022-10-01T15:01:01.279Z,1.97
2022-10-01T15:03:38.414Z,1.70
2022-10-01T15:06:13.315Z,1.47
2022-10-01T15:08:42.855Z,1.17
2022-10-01T15:11:15.425Z,1.87
2022-10-01T15:13:47.471Z,1.20
2022-10-01T15:16:17.473Z,1.60
2022-10-01T15:18:48.876Z,1.60
2022-10-01T15:21:20.950Z,1.37
2022-10-01T15:23:49.826Z,1.40
2022-10-01T15:26:23.386Z,1.37
2022-10-01T15:29:03.154Z,1.40
2022-10-01T15:31:31.326Z,1.20
2022-10-01T15:34:01.899Z,1.10
2022-10-01T15:36:30.138Z,1.50
2022-10-01T15:38:58.878Z,1.00
2022-10-01T15:41:32.524Z,1.20
2022-10-01T15:44:04.873Z,1.23
2022-10-01T15:46:35.340Z,1.30
2022-10-01T15:49:17.436Z,1.20
2022-10-01T15:52:10.074Z,1.10
2022-10-01T15:54:38.954Z,1.27
2022-10-01T15:57:07.429Z,1.53
2022-10-01T15:59:37.122Z,1.20
2022-10-01T16:02:10.529Z,1.10
2022-10-01T16:04:38.497Z,1.40
2022-10-01T16:07:06.517Z,1.53
2022-10-01T16:09:34.414Z,1.23
2022-10-01T16:12:06.721Z,1.30
2022-10-01T16:14:39.231Z,1.20
2022-10-01T16:17:28.051Z,1.00
2022-10-01T16:19:58.168Z,1.37
2022-10-01T16:22:28.631Z,1.30
2022-10-01T16:24:57.980Z,1.00
2022-10-01T16:27:27.994Z,1.40
2022-10-01T16:30:05.114Z,1.00
2022-10-01T16:32:33.795Z,1.57
2022-10-01T16:35:20.700Z,1.30
2022-10-01T16:37:50.082Z,1.17
2022-10-01T16:40:18.281Z,1.40
2022-10-01T16:42:46.888Z,1.20
2022-10-01T16:45:18.256Z,1.10
2022-10-01T16:47:47.083Z,1.10
2022-10-01T16:50:16.669Z,0.90
2022-10-01T16:52:44.618Z,0.90
2022-10-01T16:55:18.155Z,1.30
2022-10-01T16:57:46.153Z,1.10
2022-10-01T17:00:17.057Z,0.97
2022-10-01T17:02:44.912Z,1.20
2022-10-01T17:05:19.082Z,1.10
2022-10-01T17:07:47.236Z,1.23
2022-10-01T17:10:15.932Z,1.10
2022-10-01T17:12:44.596Z,1.20
2022-10-01T17:15:16.044Z,1.10
2022-10-01T17:17:45.796Z,1.10
2022-10-01T17:20:14.523Z,0.97
2022-10-01T17:22:43.312Z,0.93
2022-10-01T17:25:15.712Z,1.10
2022-10-01T17:27:43.537Z,1.10
2022-10-01T17:30:11.943Z,1.20
2022-10-01T17:32:42.811Z,1.27
2022-10-01T17:35:13.812Z,1.10
2022-10-01T17:37:41.777Z,0.90
2022-10-01T17:40:10.997Z,1.17
2022-10-01T17:42:39.143Z,1.27
2022-10-01T17:45:09.404Z,1.10
2022-10-01T17:47:37.362Z,0.80
2022-10-01T17:50:05.964Z,1.03
2022-10-01T17:52:35.116Z,1.20
2022-10-01T17:55:02.962Z,1.00
2022-10-01T17:57:30.782Z,1.07
2022-10-01T17:59:59.907Z,1.40
2022-10-01T18:02:41.536Z,0.90
2022-10-01T18:05:12.356Z,0.90
2022-10-01T18:07:42.166Z,1.40
2022-10-01T18:10:12.334Z,1.30
2022-10-01T18:12:40.368Z,0.90
2022-10-01T18:15:09.509Z,1.00
2022-10-01T18:17:42.912Z,1.30
2022-10-01T18:20:11.470Z,1.13
2022-10-01T18:22:40.690Z,1.10
2022-10-01T18:25:09.109Z,1.20
2022-10-01T18:27:37.842Z,1.10
2022-10-01T18:30:06.211Z,0.93
2022-10-01T18:32:40.381Z,0.90
2022-10-01T18:35:20.223Z,1.50
2022-10-01T18:37:52.602Z,1.20
2022-10-01T18:40:22.379Z,1.57
2022-10-01T18:42:55.179Z,1.20
2022-10-01T18:45:38.085Z,1.40
2022-10-01T18:48:21.321Z,1.00
2022-10-01T18:50:55.132Z,0.90
2022-10-01T18:53:48.360Z,0.90
2022-10-01T18:56:24.426Z,1.00
2022-10-01T18:59:20.250Z,1.13
2022-10-01T19:01:57.889Z,1.00
2022-10-01T19:04:39.098Z,1.00
2022-10-01T19:07:23.241Z,0.93
2022-10-01T19:10:03.843Z,0.90
2022-10-01T19:12:51.475Z,1.37
2022-10-01T19:15:29.783Z,0.70
2022-10-01T19:18:14.800Z,1.30
2022-10-01T19:20:52.177Z,1.00
2022-10-01T19:23:40.255Z,1.10
2022-10-01T19:26:14.572Z,1.50
2022-10-01T19:28:57.932Z,1.10
2022-10-01T19:31:34.602Z,0.70
2022-10-01T19:34:08.849Z,0.90
2022-10-01T19:36:40.013Z,1.03
2022-10-01T19:39:13.360Z,0.90
2022-10-01T19:41:48.250Z,1.00
2022-10-01T19:44:20.587Z,1.20
2022-10-01T19:46:51.187Z,1.20
2022-10-01T19:49:23.515Z,0.90
2022-10-01T19:51:57.931Z,1.00
2022-10-01T19:54:31.329Z,1.07
2022-10-01T19:57:04.890Z,1.27
2022-10-01T19:59:32.840Z,1.37
2022-10-01T20:02:14.359Z,1.30
2022-10-01T20:04:51.699Z,1.13
2022-10-01T20:07:24.558Z,1.00
2022-10-01T20:10:05.533Z,0.93
2022-10-01T20:12:41.516Z,1.00
2022-10-01T20:15:20.993Z,1.00
2022-10-01T20:18:00.329Z,0.90
2022-10-01T20:20:36.704Z,0.90
2022-10-01T20:23:21.305Z,0.87
2022-10-01T20:25:57.744Z,1.20
2022-10-01T20:28:37.392Z,1.10
2022-10-01T20:31:14.062Z,0.80
2022-10-01T20:33:48.077Z,0.90
2022-10-01T20:36:23.162Z,0.87
2022-10-01T20:38:56.200Z,1.10
2022-10-01T20:41:26.334Z,1.30
2022-10-01T20:44:01.024Z,0.93
2022-10-01T20:46:36.332Z,0.87
2022-10-01T20:49:07.823Z,1.30
2022-10-01T20:51:40.603Z,0.90
2022-10-01T20:54:11.912Z,0.90
2022-10-01T20:56:44.246Z,1.03
2022-10-01T20:59:19.163Z,1.00
2022-10-01T21:01:56.239Z,1.17
2022-10-01T21:04:29.336Z,0.90
2022-10-01T21:07:02.339Z,1.07
2022-10-01T21:09:35.056Z,0.70
2022-10-01T21:12:08.336Z,0.90
2022-10-01T21:14:42.772Z,0.80
2022-10-01T21:17:34.963Z,1.13
2022-10-01T21:20:20.944Z,0.80
2022-10-01T21:23:00.219Z,1.00
2022-10-01T21:25:36.848Z,1.10
2022-10-01T21:28:18.564Z,0.90
2022-10-01T21:31:03.213Z,0.90
2022-10-01T21:33:34.411Z,1.00
2022-10-01T21:36:07.931Z,0.90
2022-10-01T21:38:43.212Z,0.80
2022-10-01T21:41:29.532Z,1.00
2022-10-01T21:44:12.556Z,0.80
2022-10-01T21:46:51.105Z,0.80
2022-10-01T21:49:30.674Z,0.70
2022-10-01T21:52:11.396Z,0.77
2022-10-01T21:55:00.664Z,0.90
2022-10-01T21:57:48.183Z,1.10
2022-10-01T22:00:20.343Z,0.80
2022-10-01T22:02:58.745Z,0.80
2022-10-01T22:05:34.819Z,1.37
2022-10-01T22:08:24.652Z,0.80
2022-10-01T22:10:57.169Z,0.90
2022-10-01T22:13:29.525Z,0.93
2022-10-01T22:16:02.872Z,0.80
2022-10-01T22:18:37.610Z,1.10
2022-10-01T22:21:10.123Z,0.97
2022-10-01T22:23:40.725Z,0.90
2022-10-01T22:26:12.950Z,0.80
2022-10-01T22:28:44.867Z,0.93
2022-10-01T22:31:18.097Z,0.97
2022-10-01T22:33:53.332Z,0.97
2022-10-01T22:36:27.157Z,0.90
2022-10-01T22:38:57.727Z,0.90
2022-10-01T22:41:30.608Z,0.97
2022-10-01T22:43:58.455Z,1.00
2022-10-01T22:46:58.962Z,0.77
2022-10-01T22:49:45.910Z,0.90
2022-10-01T22:52:24.140Z,0.90
2022-10-01T22:55:04.714Z,1.20
2022-10-01T22:57:57.846Z,0.80
2022-10-01T23:00:26.176Z,1.07
2022-10-01T23:03:06.573Z,0.90
2022-10-01T23:05:45.912Z,0.90
2022-10-01T23:08:25.009Z,1.30
2022-10-01T23:11:04.776Z,0.73
2022-10-01T23:13:40.402Z,0.80
2022-10-01T23:16:15.529Z,1.10
2022-10-01T23:18:53.045Z,0.90
2022-10-01T23:21:35.449Z,0.97
2022-10-01T23:24:15.601Z,0.83
2022-10-01T23:26:52.238Z,0.97
2022-10-01T23:29:53.975Z,0.90
2022-10-01T23:32:37.605Z,0.70
2022-10-01T23:35:14.523Z,0.90
2022-10-01T23:38:07.949Z,0.93
2022-10-01T23:40:41.047Z,0.90
2022-10-01T23:43:17.330Z,0.80
2022-10-01T23:45:50.353Z,0.80
2022-10-01T23:48:23.221Z,0.80
2022-10-01T23:50:58.998Z,0.80
2022-10-01T23:53:36.614Z,0.93
2022-10-01T23:56:26.168Z,0.80
2022-10-01T23:58:58.352Z,0.73
